Data for 06/04/2007

Time Sea-Level Adjusted Pressure Absolute Pressure Temperature Relative Humidity Dew Point   
(mb) (inHg) (mb) (inHg) (C) (F) (%) (C) (F)
00:05 1021 30.15 850 25.1 15.5 60 59 7.6 45.8
00:10 1021 30.15 850 25.1 15.4 59.7 60 7.7 45.9
00:15 1021 30.15 850 25.1 15.1 59.1 61 7.8 46
00:20 1021 30.15 850 25.1 14.9 58.9 62 7.8 46
00:25 1021 30.15 850 25.1 14.9 58.8 62 7.6 45.8
00:30 1021 30.15 850 25.1 15 58.9 62 7.7 45.9
00:35 1021 30.15 850 25.1 15.1 59.1 62 8 46.4
00:40 1021 30.15 850 25.1 15.1 59.2 64 8.4 47
00:45 1021 30.15 850 25.1 14.8 58.7 64 8.2 46.8
00:50 1021 30.15 850 25.1 14.8 58.7 65 8.4 47.1
00:55 1021 30.15 850 25.1 14.7 58.5 66 8.6 47.4
01:00 1021 30.15 850 25.1 14.6 58.3 68 8.8 47.9
01:05 1021 30.15 850 25.1 14.6 58.2 69 9 48.2
01:10 1021 30.15 850 25.1 14.4 57.9 69 8.9 48.1
01:15 1021 30.15 850 25.1 14 57.2 70 8.8 47.8
01:20 1021 30.15 850 25.1 13.8 56.9 72 9 48.1
01:25 1021 30.15 850 25.1 13.8 56.8 73 9 48.2
01:30 1021 30.15 850 25.1 13.8 56.8 73 9 48.2
01:35 1021 30.15 850 25.1 14.1 57.5 70 8.8 47.9
01:40 1021 30.15 850 25.1 14.2 57.6 68 8.5 47.3
01:45 1021 30.15 850 25.1 14.2 57.5 67 8.2 46.7
01:50 1021 30.15 850 25.1 14 57.2 67 8 46.4
01:55 1021 30.15 850 25.1 13.8 56.8 65 7.5 45.5
02:00 1021 30.15 850 25.1 13.7 56.6 68 7.9 46.2
02:05 1021 30.15 850 25.1 13.5 56.3 66 7.4 45.3
02:10 1021 30.15 850 25.1 13.3 55.9 67 7.2 45
02:15 1021 30.15 850 25.1 13.2 55.7 66 7 44.5
02:20 1021 30.15 850 25.1 13.1 55.6 66 6.9 44.3
02:25 1021 30.15 850 25.1 13.2 55.7 65 6.7 44
02:30 1021 30.15 850 25.1 13.2 55.7 64 6.5 43.8
02:35 1021 30.15 850 25.1 13.3 55.9 64 6.6 43.9
02:40 1021 30.15 850 25.1 13.2 55.7 65 6.9 44.5
02:45 1021 30.15 850 25.1 13.2 55.8 68 7.6 45.6
02:50 1021 30.15 850 25.1 13.6 56.5 65 7.1 44.8
02:55 1021 30.15 850 25.1 13.6 56.5 64 7 44.7
03:00 1021 30.15 850 25.1 13.5 56.3 67 7.5 45.5
03:05 1021 30.15 850 25.1 14 57.1 67 8 46.3
03:10 1021 30.15 850 25.1 14.3 57.8 65 7.9 46.2
03:15 1021 30.15 850 25.1 13.9 57 67 8 46.3
03:20 1021 30.15 850 25.1 13.2 55.7 67 7.2 44.9
03:25 1021 30.15 850 25.1 12.8 55.1 68 7.1 44.8
03:30 1021 30.15 850 25.1 13.2 55.7 67 7.3 45.2
03:35 1021 30.15 850 25.1 13.4 56.2 67 7.5 45.6
03:40 1021 30.15 850 25.1 13.4 56.2 68 7.6 45.7
03:45 1021 30.15 850 25.1 13.3 55.9 68 7.6 45.6
03:50 1021 30.15 850 25.1 12.8 55.1 71 7.8 46
03:55 1021 30.15 850 25.1 12.8 55 68 7.1 44.8
04:00 1021 30.15 850 25.1 13.1 55.5 70 7.7 45.8
04:05 1021 30.15 850 25.1 13.4 56.2 69 8 46.4
04:10 1021 30.15 850 25.1 13.5 56.3 70 8.1 46.7
04:15 1021 30.15 850 25.1 13.2 55.7 72 8.3 47
04:20 1021 30.15 850 25.1 12.9 55.3 74 8.4 47
04:25 1021 30.15 850 25.1 13.1 55.5 73 8.3 46.9
04:30 1021 30.15 850 25.1 13.2 55.8 73 8.5 47.3
04:35 1021 30.15 850 25.1 13.4 56.1 71 8.2 46.8
04:40 1021 30.15 850 25.1 13.2 55.8 70 8 46.4
04:45 1021 30.15 850 25.1 12.6 54.6 69 7.1 44.8
04:50 1021 30.15 850 25.1 12.4 54.3 68 6.7 44
04:55 1021 30.15 850 25.1 12.8 55 70 7.6 45.6
05:00 1021 30.15 850 25.1 13.4 56.2 70 8.2 46.7
05:05 1021 30.15 850 25.1 13.5 56.3 71 8.3 46.9
05:10 1021 30.15 850 25.1 13.3 56 71 8.3 46.9
05:15 1021 30.15 850 25.1 13.1 55.5 72 8.2 46.7
05:20 1021 30.15 850 25.1 12.9 55.2 73 8.2 46.7
05:25 1021 30.15 850 25.1 12.8 55.1 75 8.4 47.2
05:30 1021 30.15 850 25.1 12.7 54.9 74 8.3 46.9
05:35 1021 30.15 850 25.1 12.6 54.6 73 8 46.3
05:40 1021 30.15 850 25.1 12.3 54.2 73 7.6 45.7
05:45 1021 30.15 850 25.1 12.3 54.2 72 7.5 45.4
05:50 1021 30.15 850 25.1 11.9 53.3 72 7.1 44.7
05:55 1021 30.15 850 25.1 11.4 52.6 72 6.7 44
06:00 1021 30.15 850 25.1 11.5 52.7 72 6.7 44.1
06:05 1021 30.15 850 25.1 11.5 52.7 71 6.5 43.8
06:10 1021 30.15 850 25.1 11.4 52.4 72 6.6 43.9
06:15 1021 30.15 850 25.1 11.2 52.1 73 6.6 43.9
06:20 1021 30.15 850 25.1 11.2 52.1 74 6.7 44.1
06:25 1021 30.15 851 25.13 11.6 52.9 71 6.6 43.8
06:30 1021 30.15 851 25.13 11.6 52.9 71 6.6 43.9
06:35 1021 30.15 851 25.13 11.6 52.8 73 6.9 44.4
06:40 1021 30.15 851 25.13 11.4 52.4 73 6.6 43.9
06:45 1022 30.18 851 25.13 11.4 52.5 73 6.7 44
06:50 1022 30.18 851 25.13 11.6 52.8 72 6.7 44.1
06:55 1022 30.18 851 25.13 11.8 53.3 70 6.6 43.9
07:00 1022 30.18 851 25.13 12.3 54.1 68 6.6 43.8
07:05 1022 30.18 851 25.13 12.6 54.8 68 7 44.5
07:10 1022 30.18 851 25.13 13 55.4 68 7.2 45
07:15 1022 30.18 851 25.13 13.2 55.7 67 7.3 45.2
07:20 1022 30.18 851 25.13 13.6 56.4 67 7.5 45.5
07:25 1022 30.18 851 25.13 13.9 57 67 7.9 46.2
07:30 1022 30.18 851 25.13 14.1 57.4 68 8.3 46.9
07:35 1022 30.18 851 25.13 14.7 58.4 65 8.3 46.9
07:40 1022 30.18 851 25.13 15.3 59.5 64 8.6 47.6
07:45 1022 30.18 851 25.13 15.5 59.8 65 9 48.1
07:50 1022 30.18 851 25.13 15.7 60.2 63 8.8 47.8
07:55 1022 30.18 851 25.13 15.9 60.5 65 9.3 48.7
08:00 1022 30.18 851 25.13 16.1 60.9 63 9 48.2
08:05 1022 30.18 851 25.13 16 60.8 64 9.3 48.8
08:10 1022 30.18 851 25.13 16.3 61.3 62 9.1 48.4
08:15 1022 30.18 851 25.13 16.5 61.7 65 10 50
08:20 1022 30.18 851 25.13 17.1 62.7 57 8.5 47.3
08:25 1022 30.18 851 25.13 17.7 63.9 55 8.6 47.4
08:30 1022 30.18 851 25.13 18.3 65 49 7.7 45.9
08:35 1022 30.18 851 25.13 18 64.3 52 8 46.5
08:40 1022 30.18 851 25.13 18 64.4 49 7.4 45.2
08:45 1022 30.18 851 25.13 18.8 65.8 47 7.4 45.3
08:50 1022 30.18 851 25.13 19.6 67.4 45 7.4 45.3
08:55 1022 30.18 851 25.13 20.1 68.2 46 8.4 47.1
09:00 1022 30.18 851 25.13 20 67.9 50 9.3 48.7
09:05 1021 30.15 851 25.13 19.9 67.9 51 9.6 49.3
09:10 1021 30.15 851 25.13 19.4 67 52 9.4 48.9
09:15 1021 30.15 851 25.13 19.4 66.8 54 9.9 49.9
09:20 1021 30.15 851 25.13 19.5 67.1 53 9.7 49.4
09:25 1021 30.15 851 25.13 20.1 68.2 48 9.1 48.3
09:30 1021 30.15 851 25.13 21.1 69.9 47 9.4 48.9
09:35 1021 30.15 851 25.13 21.1 70 48 9.9 49.8
09:40 1021 30.15 851 25.13 21.3 70.3 47 9.8 49.6
09:45 1021 30.15 851 25.13 21.1 70.1 48 10 50
09:50 1021 30.15 851 25.13 21.1 69.9 49 10.1 50.2
09:55 1021 30.15 851 25.13 21.1 69.9 50 10.3 50.6
10:00 1021 30.15 850 25.1 21.5 70.6 48 10.2 50.4
10:05 1021 30.15 850 25.1 22.2 72 47 10.6 51
10:10 1021 30.15 850 25.1 22.6 72.6 46 10.7 51.2
10:15 1021 30.15 850 25.1 22.6 72.7 47 10.9 51.7
10:20 1021 30.15 850 25.1 22.7 72.8 47 10.9 51.6
10:25 1021 30.15 850 25.1 22.3 72.1 48 10.8 51.4
10:30 1021 30.15 850 25.1 22.8 73 45 10.4 50.7
10:35 1021 30.15 850 25.1 22.6 72.7 47 10.9 51.7
10:40 1021 30.15 850 25.1 22.1 71.8 49 11 51.7
10:45 1021 30.15 850 25.1 22.5 72.5 47 10.8 51.4
10:50 1021 30.15 850 25.1 21.8 71.2 52 11.7 53.1
10:55 1021 30.15 850 25.1 21.9 71.4 48 10.5 50.9
11:00 1021 30.15 850 25.1 22.5 72.4 48 11.2 52.2
11:05 1021 30.15 850 25.1 22.7 72.9 47 11.1 52
11:10 1021 30.15 850 25.1 22.8 73.1 48 11.4 52.5
11:15 1021 30.15 850 25.1 22.8 73.1 48 11.4 52.6
11:20 1021 30.15 850 25.1 22.8 73 49 11.7 53.1
11:25 1021 30.15 850 25.1 22.6 72.6 46 10.5 50.8
11:30 1021 30.15 850 25.1 23.2 73.8 47 11.4 52.6
11:35 1021 30.15 850 25.1 23.4 74 45 11.1 51.9
11:40 1021 30.15 850 25.1 23.7 74.7 42 10.4 50.7
11:45 1020 30.12 850 25.1 23.3 73.9 44 10.6 51.1
11:50 1021 30.15 850 25.1 22.4 72.4 46 10.4 50.7
11:55 1020 30.12 850 25.1 22.2 71.9 50 11.3 52.3
12:00 1020 30.12 850 25.1 22.9 73.1 46 10.7 51.3
12:05 1020 30.12 850 25.1 23.2 73.7 47 11.4 52.5
12:10 1020 30.12 850 25.1 23.2 73.7 46 11.1 52
12:15 1020 30.12 850 25.1 22.4 72.2 48 11 51.8
12:20 1020 30.12 849 25.07 22.2 72 45 9.9 49.8
12:25 1020 30.12 849 25.07 23.3 73.9 40 9.2 48.6
12:30 1020 30.12 849 25.07 23.7 74.6 40 9.3 48.8
12:35 1020 30.12 849 25.07 23.6 74.5 43 10.5 50.9
12:40 1020 30.12 849 25.07 23.6 74.4 43 10.5 50.8
12:45 1020 30.12 849 25.07 24.4 75.9 41 10.4 50.8
12:50 1020 30.12 849 25.07 24.6 76.3 42 10.9 51.7
12:55 1020 30.12 849 25.07 23.2 73.8 43 10.1 50.1
13:00 1020 30.12 849 25.07 23.7 74.6 40 9.6 49.4
13:05 1020 30.12 849 25.07 23.6 74.5 39 9.1 48.4
13:10 1020 30.12 849 25.07 23.9 75 39 9.2 48.6
13:15 1020 30.12 849 25.07 23.5 74.4 40 9.3 48.7
13:20 1020 30.12 849 25.07 23.8 74.9 34 7.4 45.3
13:25 1020 30.12 849 25.07 24.2 75.5 36 8.4 47.1
13:30 1020 30.12 849 25.07 24.5 76.1 36 8.7 47.6
13:35 1020 30.12 849 25.07 24.1 75.3 37 8.6 47.5
13:40 1020 30.12 849 25.07 24.4 75.9 32 6.9 44.4
13:45 1020 30.12 849 25.07 24.7 76.5 28 5.3 41.6
13:50 1019 30.09 849 25.07 25 77 28 5.7 42.2
13:55 1019 30.09 849 25.07 25 77 28 5.6 42.1
14:00 1019 30.09 848 25.04 25.1 77.2 29 6.3 43.3
14:05 1019 30.09 848 25.04 25.5 77.9 27 5.2 41.3
14:10 1019 30.09 848 25.04 25.1 77.1 27 5.1 41.3
14:15 1019 30.09 848 25.04 24.9 76.7 27 4.8 40.6
14:20 1019 30.09 848 25.04 25.1 77.1 27 5.1 41.2
14:25 1019 30.09 848 25.04 25.3 77.5 27 5.2 41.3
14:30 1019 30.09 848 25.04 25.1 77.1 27 5 41.1
14:35 1019 30.09 848 25.04 24.9 76.9 27 4.7 40.4
14:40 1019 30.09 848 25.04 25.4 77.7 27 5.3 41.5
14:45 1019 30.09 848 25.04 25.6 78.1 26 4.8 40.6
14:50 1019 30.09 848 25.04 25.2 77.3 27 4.9 40.8
14:55 1019 30.09 848 25.04 25.1 77.2 28 5.5 42
15:00 1018 30.06 848 25.04 25.1 77.2 28 5.3 41.6
15:05 1018 30.06 848 25.04 25.4 77.6 26 4.7 40.5
15:10 1018 30.06 848 25.04 25.7 78.2 26 4.8 40.6
15:15 1018 30.06 847 25.01 25.6 78.1 24 3.9 39.1
15:20 1018 30.06 847 25.01 25.2 77.3 27 4.9 40.8
15:25 1018 30.06 847 25.01 25.3 77.5 26 4.5 40.1
15:30 1018 30.06 847 25.01 25.6 78.1 25 4.6 40.4
15:35 1018 30.06 847 25.01 25.4 77.7 25 4.1 39.3
15:40 1018 30.06 847 25.01 25.4 77.7 25 4.2 39.5
15:45 1018 30.06 847 25.01 25.3 77.5 26 4.6 40.2
15:50 1018 30.06 847 25.01 25.3 77.5 25 4.4 39.9
15:55 1018 30.06 847 25.01 25 77.1 26 4.4 40
16:00 1018 30.06 847 25.01 25 76.9 26 4.4 39.9
16:05 1018 30.06 847 25.01 25 77 24 3.5 38.3
16:10 1018 30.06 847 25.01 25.1 77.1 26 4.3 39.8
16:15 1017 30.03 847 25.01 24.7 76.4 26 4.4 39.9
16:20 1017 30.03 847 25.01 24.7 76.5 25 3.8 38.9
16:25 1017 30.03 847 25.01 24.6 76.2 27 4.3 39.7
16:30 1017 30.03 847 25.01 24.4 76 25 3.4 38.1
16:35 1017 30.03 846 24.98 24.5 76 26 3.9 39
16:40 1017 30.03 846 24.98 24.4 75.9 26 3.9 39
16:45 1017 30.03 846 24.98 24.5 76 26 3.9 39
16:50 1017 30.03 846 24.98 24.6 76.3 26 4 39.2
16:55 1017 30.03 846 24.98 24.5 76.2 26 4 39.3
17:00 1017 30.03 846 24.98 24.5 76.1 26 3.8 38.9
17:05 1017 30.03 846 24.98 24.4 75.9 26 4.1 39.3
17:10 1017 30.03 846 24.98 24.3 75.7 26 3.9 39.1
17:15 1017 30.03 846 24.98 24.1 75.4 27 3.9 39.1
17:20 1017 30.03 846 24.98 24 75.2 27 4 39.3
17:25 1017 30.03 846 24.98 24.1 75.3 25 3.2 37.8
17:30 1017 30.03 846 24.98 24.1 75.4 25 3 37.4
17:35 1016 30 846 24.98 24.1 75.4 26 3.5 38.2
17:40 1016 30 846 24.98 24.1 75.3 25 3.2 37.8
17:45 1016 30 846 24.98 23.8 74.9 26 3.3 38
17:50 1016 30 846 24.98 23.8 74.8 29 4.7 40.4
17:55 1016 30 845 24.95 23.6 74.5 31 5.5 42
18:00 1016 30 845 24.95 23.5 74.3 32 5.9 42.6
18:05 1016 30 845 24.95 23.4 74.1 33 6.5 43.8
18:10 1016 30 845 24.95 23.1 73.5 34 6.5 43.7
18:15 1016 30 845 24.95 22.9 73.1 34 6.5 43.6
18:20 1016 30 845 24.95 22.7 72.9 34 6.4 43.6
18:25 1016 30 845 24.95 22.8 73 34 6.4 43.5
18:30 1016 30 845 24.95 22.6 72.7 35 6.5 43.6
18:35 1016 30 845 24.95 22.6 72.6 35 6.4 43.5
18:40 1016 30 845 24.95 22.5 72.6 35 6.7 44
18:45 1016 30 845 24.95 22.6 72.6 35 6.6 43.8
18:50 1016 30 845 24.95 22.6 72.6 36 6.8 44.2
18:55 1016 30 845 24.95 22.5 72.5 36 6.9 44.4
19:00 1016 30 845 24.95 22.4 72.3 35 6.3 43.3
19:05 1016 30 845 24.95 22.2 71.9 35 6.3 43.4
19:10 1016 30 845 24.95 22 71.5 35 6.2 43.1
19:15 1016 30 845 24.95 21.9 71.4 36 6.2 43.2
19:20 1016 30 845 24.95 21.8 71.3 36 6.3 43.3
19:25 1016 30 845 24.95 21.7 71 38 6.8 44.2
19:30 1016 30 845 24.95 21.4 70.6 39 7.1 44.8
19:35 1016 30 845 24.95 21.3 70.3 38 6.7 44
19:40 1016 30 845 24.95 21.2 70.1 38 6.4 43.5
19:45 1016 30 845 24.95 21.1 70.1 39 6.7 44.1
19:50 1016 30 845 24.95 21 69.7 39 6.8 44.2
19:55 1016 30 845 24.95 20.9 69.5 39 6.6 44
20:00 1016 30 845 24.95 20.7 69.3 40 6.9 44.4
20:05 1016 30 845 24.95 20.6 69.1 40 6.7 44
20:10 1016 30 845 24.95 20.5 69 40 6.5 43.7
20:15 1016 30 845 24.95 20.4 68.8 40 6.4 43.6
20:20 1016 30 845 24.95 20.4 68.6 40 6.5 43.7
20:25 1016 30 846 24.98 20.3 68.5 41 6.6 43.9
20:30 1016 30 846 24.98 20.2 68.3 41 6.6 43.8
20:35 1016 30 846 24.98 20.1 68.1 42 6.8 44.3
20:40 1017 30.03 846 24.98 19.9 67.9 42 6.7 44
20:45 1017 30.03 846 24.98 19.9 67.8 41 6.5 43.7
20:50 1017 30.03 846 24.98 19.8 67.7 42 6.6 43.8
20:55 1017 30.03 846 24.98 19.7 67.5 41 6.4 43.5
21:00 1017 30.03 846 24.98 19.7 67.4 42 6.6 43.9
21:05 1017 30.03 846 24.98 19.7 67.5 43 6.9 44.5
21:10 1017 30.03 846 24.98 19.7 67.4 43 7 44.7
21:15 1017 30.03 846 24.98 19.6 67.3 44 7.2 45
21:20 1017 30.03 846 24.98 19.8 67.6 44 7.3 45.2
21:25 1017 30.03 846 24.98 19.9 67.8 44 7.3 45.2
21:30 1017 30.03 846 24.98 19.9 67.9 44 7.5 45.5
21:35 1017 30.03 846 24.98 19.8 67.6 45 7.7 45.8
21:40 1017 30.03 846 24.98 19.6 67.2 47 8 46.4
21:45 1017 30.03 846 24.98 19.3 66.8 48 8 46.5
21:50 1017 30.03 846 24.98 19.3 66.7 47 7.9 46.3
21:55 1017 30.03 846 24.98 19.1 66.4 49 8.4 47.2
22:00 1017 30.03 846 24.98 18.8 65.8 52 8.7 47.7
22:05 1017 30.03 846 24.98 18.8 65.8 53 9.1 48.4
22:10 1017 30.03 846 24.98 18.6 65.5 51 8.4 47.1
22:15 1017 30.03 846 24.98 18.5 65.2 52 8.5 47.3
22:20 1017 30.03 846 24.98 18.4 65.1 52 8.4 47.2
22:25 1017 30.03 846 24.98 18.3 65 52 8.5 47.4
22:30 1017 30.03 846 24.98 18.2 64.7 53 8.6 47.5
22:35 1017 30.03 846 24.98 18.1 64.6 54 8.8 47.8
22:40 1017 30.03 846 24.98 18.2 64.8 53 8.7 47.7
22:45 1017 30.03 846 24.98 18.4 65.1 51 8.3 46.9
22:50 1017 30.03 846 24.98 18.6 65.4 51 8.4 47
22:55 1017 30.03 846 24.98 18.8 65.9 46 7.2 44.9
23:00 1017 30.03 846 24.98 19.1 66.4 47 7.6 45.7
23:05 1017 30.03 846 24.98 19.1 66.3 45 7.1 44.8
23:10 1017 30.03 846 24.98 19.1 66.4 46 7.4 45.4
23:15 1017 30.03 846 24.98 19 66.3 47 7.7 45.9
23:20 1016 30 846 24.98 18.8 65.9 50 8.2 46.8
23:25 1016 30 846 24.98 18.6 65.5 51 8.4 47.1
23:30 1016 30 845 24.95 18.6 65.5 51 8.3 47
23:35 1016 30 845 24.95 18.6 65.5 52 8.6 47.4
23:40 1016 30 845 24.95 18.5 65.3 52 8.7 47.6
23:45 1016 30 845 24.95 18.3 65 54 8.8 47.9
23:50 1016 30 845 24.95 17.9 64.2 56 9.1 48.4
23:55 1016 30 845 24.95 17.6 63.7 58 9.3 48.7
24:00 1016 30 845 24.95 17.3 63.2 59 9.3 48.7